Time;durP1;ratioP1;P1;durP2;ratioP2;P2;SDS_P1;SDS_P2;PMS_P1;PMS_P2;Temp;Humidity;BMP_temperature;BMP_pressure;BME280_temperature;BME280_humidity;BME280_pressure;Samples;Min_cycle;Max_cycle;Signal;HPM_P1;HPM_P2
2022/04/24 00:01:30;;;;;;;24.98;16.30;;;;;;;9.85;100.00;97318.84;5041603;28;20045;-61
2022/04/24 00:03:56;;;;;;;26.25;18.13;;;;;;;9.76;100.00;97329.44;5043620;28;20501;-62
2022/04/24 00:06:21;;;;;;;24.90;17.80;;;;;;;9.52;100.00;97305.56;5045113;28;20128;-62
2022/04/24 00:08:47;;;;;;;22.27;16.60;;;;;;;9.59;100.00;97325.75;5043564;28;20036;-62
2022/04/24 00:11:12;;;;;;;25.02;15.82;;;;;;;9.44;100.00;97310.13;5041734;28;20037;-61
2022/04/24 00:13:40;;;;;;;24.15;17.25;;;;;;;9.46;100.00;97316.84;5043514;28;20049;-63
2022/04/24 00:16:06;;;;;;;25.70;18.35;;;;;;;9.31;100.00;97302.06;5044493;28;20088;-62
2022/04/24 00:18:32;;;;;;;24.27;16.35;;;;;;;9.31;100.00;97316.56;5042719;28;20042;-62
2022/04/24 00:20:57;;;;;;;21.95;16.42;;;;;;;9.30;100.00;97327.66;5040940;28;20021;-61
2022/04/24 00:23:23;;;;;;;21.65;14.98;;;;;;;9.33;100.00;97320.75;5044542;28;20945;-62
2022/04/24 00:25:48;;;;;;;26.75;17.73;;;;;;;9.32;100.00;97301.19;5043906;28;20033;-62
2022/04/24 00:28:14;;;;;;;30.70;17.00;;;;;;;9.40;100.00;97311.13;5041110;28;20471;-63
2022/04/24 00:30:39;;;;;;;27.10;17.05;;;;;;;9.44;100.00;97315.25;5040726;28;20029;-62
2022/04/24 00:33:05;;;;;;;24.48;16.52;;;;;;;9.48;100.00;97316.81;5044591;28;20061;-61
2022/04/24 00:35:31;;;;;;;25.67;16.13;;;;;;;9.42;100.00;97299.94;5043617;28;20063;-62
2022/04/24 00:37:57;;;;;;;24.58;17.88;;;;;;;9.41;100.00;97290.63;5041190;28;20410;-61
2022/04/24 00:40:23;;;;;;;27.00;17.85;;;;;;;9.49;100.00;97295.47;5041887;28;20037;-63
2022/04/24 00:42:48;;;;;;;25.25;17.75;;;;;;;9.48;100.00;97293.78;5044398;28;20483;-63
2022/04/24 00:45:13;;;;;;;29.45;19.20;;;;;;;9.44;100.00;97298.19;5043458;28;20028;-62
2022/04/24 00:47:41;;;;;;;29.95;18.42;;;;;;;9.42;100.00;97314.47;5039566;28;20025;-62
2022/04/24 00:50:07;;;;;;;28.15;18.40;;;;;;;9.41;100.00;97300.84;5040023;28;20040;-62
2022/04/24 00:52:33;;;;;;;28.50;17.83;;;;;;;9.37;100.00;97283.94;5044199;28;20033;-62
2022/04/24 00:55:00;;;;;;;25.13;17.27;;;;;;;9.37;100.00;97278.00;5042997;28;20033;-62
2022/04/24 00:57:25;;;;;;;29.65;18.63;;;;;;;9.35;100.00;97285.72;5041097;28;20029;-61
2022/04/24 00:59:51;;;;;;;33.55;19.65;;;;;;;9.30;100.00;97253.50;5041621;28;20372;-62
2022/04/24 01:02:16;;;;;;;28.92;18.85;;;;;;;9.32;100.00;97255.13;5037234;28;20075;-61
2022/04/24 01:04:42;;;;;;;36.65;20.60;;;;;;;9.42;100.00;97273.56;5041963;28;20124;-61
2022/04/24 01:07:08;;;;;;;36.33;20.98;;;;;;;9.31;100.00;97267.97;5040214;28;20040;-62
2022/04/24 01:09:35;;;;;;;34.38;19.98;;;;;;;9.25;100.00;97247.75;5042486;28;20033;-63
2022/04/24 01:12:01;;;;;;;38.25;20.90;;;;;;;9.30;100.00;97279.91;5043937;28;20104;-62
2022/04/24 01:14:28;;;;;;;33.00;20.15;;;;;;;9.25;100.00;97268.22;5041381;28;20045;-62
2022/04/24 01:16:54;;;;;;;33.67;18.70;;;;;;;9.29;100.00;97254.41;5040505;28;20127;-62
2022/04/24 01:19:21;;;;;;;26.67;17.55;;;;;;;9.33;100.00;97255.97;5042785;28;20060;-62
2022/04/24 01:21:48;;;;;;;30.95;19.48;;;;;;;9.37;100.00;97247.31;5043655;28;20033;-61
2022/04/24 01:24:16;;;;;;;35.35;20.23;;;;;;;9.33;100.00;97255.97;5040748;28;20025;-61
2022/04/24 01:26:42;;;;;;;30.70;20.55;;;;;;;9.24;100.00;97235.84;5040591;28;20060;-62
2022/04/24 01:29:09;;;;;;;38.28;20.77;;;;;;;9.36;100.00;97258.41;5041522;28;20116;-62
2022/04/24 01:31:35;;;;;;;35.33;20.58;;;;;;;9.32;100.00;97244.06;5043265;28;20393;-62
2022/04/24 01:34:00;;;;;;;35.22;21.60;;;;;;;9.39;100.00;97248.91;5040120;28;20029;-61
2022/04/24 01:36:26;;;;;;;43.33;21.67;;;;;;;9.33;100.00;97241.47;5040207;28;20040;-61
2022/04/24 01:38:52;;;;;;;33.60;19.75;;;;;;;9.41;100.00;97252.25;5043661;28;20032;-62
2022/04/24 01:41:17;;;;;;;35.50;20.27;;;;;;;9.26;100.00;97234.06;5043805;28;20025;-61
2022/04/24 01:43:43;;;;;;;31.63;20.00;;;;;;;9.34;100.00;97250.78;5039385;28;20029;-61
2022/04/24 01:46:09;;;;;;;32.10;20.05;;;;;;;9.39;100.00;97248.91;5039418;28;20059;-62
2022/04/24 01:48:35;;;;;;;31.02;18.73;;;;;;;9.28;100.00;97229.72;5043162;28;20044;-61
2022/04/24 01:51:05;;;;;;;30.38;18.90;;;;;;;9.27;100.00;97217.81;5043128;28;20123;-61
2022/04/24 01:53:31;;;;;;;31.17;18.77;;;;;;;9.34;100.00;97232.03;5039313;28;20029;-62
2022/04/24 01:55:58;;;;;;;32.88;20.23;;;;;;;9.45;100.00;97222.28;5040722;28;20116;-61
2022/04/24 01:58:24;;;;;;;33.92;20.83;;;;;;;9.38;100.00;97216.53;5042630;28;20033;-61
2022/04/24 02:00:50;;;;;;;35.65;21.63;;;;;;;9.35;100.00;97201.31;5041525;28;20039;-61
2022/04/24 02:03:16;;;;;;;33.30;19.88;;;;;;;9.34;100.00;97189.41;5039204;28;20112;-61
2022/04/24 02:05:41;;;;;;;40.72;22.40;;;;;;;9.41;100.00;97193.44;5040866;28;20040;-61
2022/04/24 02:08:07;;;;;;;34.22;19.88;;;;;;;9.47;100.00;97189.78;5042511;28;20048;-61
2022/04/24 02:10:32;;;;;;;40.20;21.83;;;;;;;9.33;100.00;97177.53;5040757;28;20029;-61
2022/04/24 02:12:58;;;;;;;34.17;20.55;;;;;;;9.35;100.00;97180.00;5038628;28;20033;-62
2022/04/24 02:15:24;;;;;;;38.53;22.08;;;;;;;9.31;100.00;97178.47;5040834;28;20450;-60
2022/04/24 02:17:49;;;;;;;34.58;20.33;;;;;;;9.34;100.00;97186.84;5040936;28;20032;-60
2022/04/24 02:20:15;;;;;;;38.50;23.52;;;;;;;9.24;100.00;97175.31;5040794;28;20025;-60
2022/04/24 02:22:40;;;;;;;36.78;20.40;;;;;;;9.21;100.00;97172.03;5037891;28;20091;-60
2022/04/24 02:25:06;;;;;;;34.75;19.35;;;;;;;9.27;100.00;97189.69;5040620;28;20131;-60
2022/04/24 02:27:32;;;;;;;37.47;22.20;;;;;;;9.21;100.00;97188.19;5041848;28;20033;-60
2022/04/24 02:29:57;;;;;;;40.67;22.48;;;;;;;9.23;100.00;97177.91;5039014;28;20634;-60
2022/04/24 02:32:23;;;;;;;42.38;23.70;;;;;;;9.23;100.00;97180.47;5037374;28;20115;-60
2022/04/24 02:34:48;;;;;;;39.70;22.73;;;;;;;9.14;100.00;97172.25;5040148;28;20033;-61
2022/04/24 02:37:14;;;;;;;45.63;25.00;;;;;;;9.13;100.00;97178.25;5040975;28;20043;-62
2022/04/24 02:39:39;;;;;;;40.33;23.75;;;;;;;9.11;100.00;97159.59;5038298;28;20634;-59
2022/04/24 02:42:05;;;;;;;48.33;24.35;;;;;;;9.15;100.00;97166.25;5037461;28;20035;-61
2022/04/24 02:44:30;;;;;;;43.85;24.45;;;;;;;9.26;100.00;97165.00;5041009;28;20560;-60
2022/04/24 02:46:56;;;;;;;51.00;24.90;;;;;;;9.20;100.00;97165.25;5040660;28;20399;-60
2022/04/24 02:49:21;;;;;;;52.83;23.80;;;;;;;9.19;100.00;97164.41;5038761;28;20809;-61
2022/04/24 02:51:47;;;;;;;37.78;21.65;;;;;;;9.08;100.00;97156.31;5038532;28;20803;-61
2022/04/24 02:54:13;;;;;;;39.65;22.25;;;;;;;9.10;100.00;97163.03;5040795;28;20029;-64
2022/04/24 02:56:39;;;;;;;32.50;18.88;;;;;;;9.05;100.00;97164.91;5041213;28;20033;-63
2022/04/24 02:59:04;;;;;;;35.95;21.40;;;;;;;9.00;100.00;97156.56;5036216;28;20041;-63
2022/04/24 03:01:30;;;;;;;41.50;20.83;;;;;;;8.97;100.00;97151.59;5037489;28;20558;-62
2022/04/24 03:03:56;;;;;;;36.63;22.10;;;;;;;8.98;100.00;97150.69;5040949;28;20040;-64
2022/04/24 03:06:22;;;;;;;42.83;22.25;;;;;;;8.95;100.00;97155.94;5040426;28;20048;-63
2022/04/24 03:08:47;;;;;;;40.90;22.48;;;;;;;8.94;100.00;97153.44;5038192;28;20053;-63
2022/04/24 03:11:14;;;;;;;41.22;22.90;;;;;;;8.95;100.00;97153.38;5037973;28;20087;-63
2022/04/24 03:13:40;;;;;;;40.80;21.77;;;;;;;8.89;100.00;97143.38;5040828;28;20057;-63
2022/04/24 03:16:05;;;;;;;41.13;21.17;;;;;;;8.99;100.00;97129.38;5039683;28;20542;-64
2022/04/24 03:18:31;;;;;;;37.25;22.92;;;;;;;9.02;100.00;97110.53;5037316;28;20029;-62
2022/04/24 03:20:56;;;;;;;41.88;21.42;;;;;;;9.00;100.00;97102.91;5039254;28;20033;-62
2022/04/24 03:23:22;;;;;;;35.58;21.48;;;;;;;8.94;100.00;97103.16;5040889;28;20034;-62
2022/04/24 03:25:47;;;;;;;39.75;22.38;;;;;;;8.95;100.00;97114.19;5039705;28;20912;-61
2022/04/24 03:28:13;;;;;;;42.70;24.13;;;;;;;8.87;100.00;97111.91;5037573;28;20094;-63
2022/04/24 03:30:38;;;;;;;43.63;22.02;;;;;;;8.79;100.00;97098.56;5043751;28;20165;-65
2022/04/24 03:33:04;;;;;;;46.83;24.42;;;;;;;8.88;100.00;97113.59;5043795;28;20029;-65
2022/04/24 03:35:29;;;;;;;63.10;22.70;;;;;;;8.80;100.00;97100.25;5037152;28;20108;-65
2022/04/24 03:37:54;;;;;;;80.72;25.25;;;;;;;8.88;100.00;97112.75;5041177;28;20965;-65
2022/04/24 03:40:20;;;;;;;105.82;26.50;;;;;;;8.83;100.00;97120.56;5042718;28;20542;-65
2022/04/24 03:42:46;;;;;;;56.03;22.75;;;;;;;8.74;100.00;97107.31;5045158;28;20041;-63
2022/04/24 03:45:12;;;;;;;77.03;23.98;;;;;;;8.75;100.00;97122.56;5041842;28;20037;-65
2022/04/24 03:47:38;;;;;;;89.22;24.23;;;;;;;8.66;100.00;97112.69;5040270;28;20550;-65
2022/04/24 03:50:05;;;;;;;59.22;23.50;;;;;;;8.66;100.00;97108.41;5043167;28;20079;-65
2022/04/24 03:52:31;;;;;;;35.83;20.90;;;;;;;8.68;100.00;97113.47;5043702;28;20052;-66
2022/04/24 03:54:57;;;;;;;33.08;19.85;;;;;;;8.63;100.00;97102.59;5040363;28;20406;-64
2022/04/24 03:57:22;;;;;;;41.00;21.92;;;;;;;8.63;100.00;97100.03;5041094;28;20032;-64
2022/04/24 03:59:48;;;;;;;47.03;23.13;;;;;;;8.61;100.00;97092.41;5043640;28;20134;-64
2022/04/24 04:02:13;;;;;;;43.45;24.83;;;;;;;8.66;100.00;97087.13;5045891;28;20025;-64
2022/04/24 04:04:39;;;;;;;34.95;20.48;;;;;;;8.61;100.00;97083.94;5041423;28;20033;-64
2022/04/24 04:07:05;;;;;;;48.28;21.65;;;;;;;8.66;100.00;97093.06;5042840;28;20040;-64
2022/04/24 04:09:30;;;;;;;31.05;19.50;;;;;;;8.55;100.00;97081.59;5044686;28;20036;-64
2022/04/24 04:11:56;;;;;;;33.78;20.25;;;;;;;8.47;100.00;97063.16;5044594;28;20029;-64
2022/04/24 04:14:22;;;;;;;38.40;20.70;;;;;;;8.43;100.00;97067.53;5040761;28;20095;-65
2022/04/24 04:16:49;;;;;;;33.73;20.67;;;;;;;8.35;100.00;97061.88;5042341;28;20043;-64
2022/04/24 04:19:14;;;;;;;36.70;20.03;;;;;;;8.23;100.00;97059.72;5044807;28;20648;-65
2022/04/24 04:21:39;;;;;;;27.47;18.30;;;;;;;8.20;100.00;97053.00;5043810;28;20029;-64
2022/04/24 04:24:05;;;;;;;33.20;18.37;;;;;;;8.27;100.00;97041.66;5040936;28;20031;-64
2022/04/24 04:26:30;;;;;;;29.77;18.93;;;;;;;8.31;100.00;97036.50;5042389;28;20024;-64
2022/04/24 04:28:57;;;;;;;31.55;19.23;;;;;;;8.39;100.00;97062.59;5043352;28;20590;-65
2022/04/24 04:31:22;;;;;;;31.55;20.40;;;;;;;8.36;100.00;97057.59;5043259;28;20534;-65
2022/04/24 04:33:47;;;;;;;32.30;20.43;;;;;;;8.39;100.00;97049.84;5040717;28;20098;-65
2022/04/24 04:36:13;;;;;;;28.98;19.20;;;;;;;8.62;100.00;97067.69;5042758;28;20037;-65
2022/04/24 04:38:38;;;;;;;28.35;17.92;;;;;;;8.58;100.00;97045.72;5044703;28;20388;-64
2022/04/24 04:41:04;;;;;;;29.42;19.05;;;;;;;8.74;100.00;97040.91;5042425;28;20035;-65
2022/04/24 04:43:30;;;;;;;27.73;16.20;;;;;;;8.84;100.00;97040.47;5040759;28;20072;-65
2022/04/24 04:45:56;;;;;;;22.40;15.35;;;;;;;8.87;100.00;97035.25;5043374;28;20459;-65
2022/04/24 04:48:21;;;;;;;21.03;15.33;;;;;;;9.09;100.00;97050.59;5044366;28;20043;-65
2022/04/24 04:50:48;;;;;;;17.90;13.00;;;;;;;9.21;100.00;97050.13;5042058;28;20570;-63
2022/04/24 04:53:14;;;;;;;18.23;12.70;;;;;;;9.36;100.00;97035.91;5040213;28;20037;-65
2022/04/24 04:55:39;;;;;;;16.17;11.80;;;;;;;9.39;100.00;97028.94;5043378;28;20029;-67
2022/04/24 04:58:05;;;;;;;14.55;11.48;;;;;;;9.39;100.00;97023.81;5044892;28;20041;-65
2022/04/24 05:00:30;;;;;;;16.52;12.70;;;;;;;9.42;100.00;97020.34;5041456;28;20041;-62
2022/04/24 05:02:56;;;;;;;13.98;10.38;;;;;;;9.46;100.00;97019.31;5040812;28;20766;-61
2022/04/24 05:05:21;;;;;;;12.88;9.70;;;;;;;9.52;100.00;97009.66;5043555;28;20033;-65
2022/04/24 05:07:47;;;;;;;14.05;10.18;;;;;;;9.66;100.00;96996.31;5043888;28;20521;-65
2022/04/24 05:10:12;;;;;;;11.30;8.63;;;;;;;9.68;100.00;96998.78;5041067;28;20043;-65
2022/04/24 05:12:38;;;;;;;11.88;9.52;;;;;;;9.85;100.00;97001.47;5040177;28;20044;-65
2022/04/24 05:15:09;;;;;;;12.68;10.30;;;;;;;9.97;100.00;96983.84;5043727;28;20056;-65
2022/04/24 05:17:35;;;;;;;12.23;8.85;;;;;;;10.06;100.00;96955.28;5043709;28;20533;-65
2022/04/24 05:20:02;;;;;;;9.65;7.47;;;;;;;10.19;100.00;96944.53;5039553;28;20137;-65
2022/04/24 05:22:28;;;;;;;7.57;5.93;;;;;;;10.39;100.00;96954.75;5041639;28;20091;-65
2022/04/24 05:24:53;;;;;;;10.48;6.65;;;;;;;10.53;100.00;96957.50;5043575;28;20029;-65
2022/04/24 05:27:19;;;;;;;9.02;6.03;;;;;;;10.77;100.00;96950.44;5041923;28;20048;-66
2022/04/24 05:29:45;;;;;;;6.35;5.60;;;;;;;10.93;100.00;96962.44;5039365;28;20029;-65
2022/04/24 05:32:11;;;;;;;6.85;5.60;;;;;;;11.03;100.00;96975.69;5041830;28;20554;-65
2022/04/24 05:34:36;;;;;;;8.93;5.88;;;;;;;11.07;100.00;96963.53;5043181;28;20398;-65
2022/04/24 05:37:03;;;;;;;5.22;4.72;;;;;;;11.31;100.00;96959.78;5042360;28;20463;-66
2022/04/24 05:39:29;;;;;;;7.07;5.47;;;;;;;11.45;100.00;96955.66;5039861;28;20424;-65
2022/04/24 05:41:54;;;;;;;6.63;5.50;;;;;;;11.52;100.00;96957.91;5041963;28;20064;-65
2022/04/24 05:44:20;;;;;;;7.60;5.93;;;;;;;11.62;100.00;96949.69;5041802;28;20040;-65
2022/04/24 05:46:46;;;;;;;8.38;5.78;;;;;;;11.72;100.00;96944.94;5041587;28;20130;-65
2022/04/24 05:49:11;;;;;;;6.03;5.35;;;;;;;11.78;100.00;96939.50;5039819;28;20089;-66
2022/04/24 05:51:36;;;;;;;6.80;5.28;;;;;;;11.79;100.00;96931.72;5042001;28;20487;-64
2022/04/24 05:54:02;;;;;;;5.55;5.05;;;;;;;11.76;100.00;96938.72;5042489;28;20067;-64
2022/04/24 05:56:27;;;;;;;6.97;5.00;;;;;;;11.90;100.00;96937.13;5041034;28;20395;-64
2022/04/24 05:58:53;;;;;;;6.32;4.18;;;;;;;11.97;100.00;96937.63;5039528;28;20399;-64
2022/04/24 06:01:18;;;;;;;5.63;4.00;;;;;;;12.00;100.00;96937.50;5041537;28;20666;-64
2022/04/24 06:03:44;;;;;;;5.45;3.30;;;;;;;12.02;100.00;96927.13;5039085;28;20056;-64
2022/04/24 06:06:10;;;;;;;5.43;2.95;;;;;;;12.32;100.00;96928.09;5041537;28;20041;-65
2022/04/24 06:08:36;;;;;;;3.85;2.42;;;;;;;12.50;100.00;96954.53;5042971;28;20128;-64
2022/04/24 06:11:01;;;;;;;3.08;2.75;;;;;;;12.51;100.00;96957.06;5041818;28;20028;-66
2022/04/24 06:13:27;;;;;;;4.63;2.70;;;;;;;12.49;100.00;96942.59;5038731;28;20059;-64
2022/04/24 06:15:57;;;;;;;3.25;2.95;;;;;;;12.36;100.00;96939.84;5041629;28;20025;-65
2022/04/24 06:18:24;;;;;;;4.47;3.13;;;;;;;12.41;100.00;96950.72;5043114;28;20036;-65
2022/04/24 06:20:49;;;;;;;4.55;3.17;;;;;;;12.36;100.00;96950.97;5036438;28;20071;-65
2022/04/24 06:23:15;;;;;;;5.53;3.45;;;;;;;12.43;100.00;96959.19;5039506;28;20025;-65
2022/04/24 06:25:41;;;;;;;6.47;2.72;;;;;;;12.49;100.00;96942.59;5041957;28;20445;-65
2022/04/24 06:28:06;;;;;;;4.75;2.67;;;;;;;12.51;100.00;96939.06;5042143;28;20030;-65
2022/04/24 06:30:33;;;;;;;4.57;2.55;;;;;;;12.75;100.00;96934.31;5038273;28;20069;-65
2022/04/24 06:33:01;;;;;;;3.35;2.58;;;;;;;12.73;100.00;96931.00;5039578;28;20032;-65
2022/04/24 06:35:27;;;;;;;4.05;2.67;;;;;;;12.91;100.00;96944.56;5042201;28;20380;-66
2022/04/24 06:37:53;;;;;;;4.80;2.85;;;;;;;12.99;100.00;96942.41;5042639;28;20091;-66
2022/04/24 06:40:20;;;;;;;4.63;3.08;;;;;;;13.03;100.00;96954.19;5039850;28;20036;-65
2022/04/24 06:42:53;;;;;;;6.07;2.67;;;;;;;12.96;100.00;96942.59;5039706;28;20033;-65
2022/04/24 06:45:29;;;;;;;4.20;3.00;;;;;;;12.87;100.00;96919.94;5042566;28;20025;-67
2022/04/24 06:48:15;;;;;;;3.25;2.95;;;;;;;12.98;100.00;96930.47;5042109;28;20033;-65
2022/04/24 06:50:41;;;;;;;;;;;;;;;12.84;100.00;96918.38;5040236;28;20072;-65
2022/04/24 06:53:07;;;;;;;3.30;2.55;;;;;;;12.89;100.00;96897.56;5040809;28;19934;-65
2022/04/24 06:55:38;;;;;;;4.32;2.60;;;;;;;12.83;100.00;96881.53;5042001;28;20029;-65
2022/04/24 06:58:06;;;;;;;6.50;3.13;;;;;;;12.90;100.00;96887.16;5040775;28;20025;-65
2022/04/24 07:00:36;;;;;;;7.05;2.80;;;;;;;12.94;100.00;96880.13;5039090;28;20083;-64
2022/04/24 07:03:11;;;;;;;4.43;2.63;;;;;;;13.00;100.00;96877.19;5041673;28;20036;-65
2022/04/24 07:05:36;;;;;;;5.60;2.58;;;;;;;13.19;100.00;96859.84;5045866;28;20041;-65
2022/04/24 07:08:02;;;;;;;4.63;2.40;;;;;;;13.30;100.00;96831.72;5044381;28;20460;-65
2022/04/24 07:10:29;;;;;;;3.25;2.95;;;;;;;13.52;100.00;96845.00;5043192;28;20376;-65
2022/04/24 07:12:54;;;;;;;6.57;2.20;;;;;;;13.66;100.00;96854.47;5046854;28;20102;-65
2022/04/24 07:15:22;;;;;;;5.30;2.20;;;;;;;13.76;100.00;96854.72;5045656;28;20494;-65
2022/04/24 07:17:50;;;;;;;7.70;2.08;;;;;;;13.88;100.00;96870.28;5043597;28;20147;-65
2022/04/24 07:20:18;;;;;;;5.57;2.40;;;;;;;13.92;100.00;96873.53;5041518;28;20029;-65
2022/04/24 07:23:06;;;;;;;4.63;3.42;;;;;;;14.07;100.00;96878.56;5046632;28;20033;-65
2022/04/24 07:25:34;;;;;;;3.17;2.20;;;;;;;14.14;100.00;96866.13;5045231;28;20037;-64
2022/04/24 07:27:59;;;;;;;3.20;2.60;;;;;;;14.23;100.00;96877.59;5042778;28;20036;-65
2022/04/24 07:30:25;;;;;;;6.50;2.63;;;;;;;14.35;100.00;96903.50;5043861;28;20029;-65
2022/04/24 07:32:56;;;;;;;7.13;3.05;;;;;;;14.75;100.00;96908.75;5045591;28;20025;-65
2022/04/24 07:35:25;;;;;;;2.95;2.10;;;;;;;14.94;100.00;96909.22;5044826;28;20045;-65
2022/04/24 07:37:51;;;;;;;4.95;2.53;;;;;;;15.08;100.00;96916.91;5042756;28;20071;-65
2022/04/24 07:40:19;;;;;;;7.38;3.10;;;;;;;15.38;100.00;96935.59;5043825;28;20029;-65
2022/04/24 07:42:52;;;;;;;5.38;2.63;;;;;;;15.46;100.00;96930.75;5038241;28;20043;-65
2022/04/24 07:45:22;;;;;;;5.38;2.58;;;;;;;15.62;100.00;96915.09;5043003;28;20033;-66
2022/04/24 07:47:49;;;;;;;3.78;2.28;;;;;;;15.84;100.00;96920.47;5042034;28;20033;-66
2022/04/24 07:50:15;;;;;;;4.63;2.60;;;;;;;15.91;100.00;96926.09;5045001;28;20493;-66
2022/04/24 07:52:41;;;;;;;3.97;2.60;;;;;;;15.93;100.00;96943.13;5045949;28;20033;-65
2022/04/24 07:55:07;;;;;;;5.88;2.60;;;;;;;15.87;100.00;96947.91;5042450;28;20037;-66
2022/04/24 07:57:32;;;;;;;4.32;2.60;;;;;;;16.09;100.00;96961.00;5042418;28;20033;-66
2022/04/24 07:59:58;;;;;;;3.17;2.90;;;;;;;16.21;100.00;96943.84;5043386;28;20100;-66
2022/04/24 08:02:23;;;;;;;4.13;2.72;;;;;;;16.32;100.00;96960.28;5043656;28;20399;-66
2022/04/24 08:04:49;;;;;;;4.30;2.67;;;;;;;16.37;100.00;96958.22;5042167;28;20033;-66
2022/04/24 08:07:15;;;;;;;6.20;2.72;;;;;;;16.57;100.00;96961.16;5040866;28;20036;-66
2022/04/24 08:09:42;;;;;;;4.15;2.63;;;;;;;16.65;100.00;96943.38;5045056;28;20692;-66
2022/04/24 08:12:08;;;;;;;3.10;2.80;;;;;;;16.80;100.00;96957.84;5045728;28;20091;-66
2022/04/24 08:14:33;;;;;;;9.65;2.45;;;;;;;17.08;100.00;96957.53;5040803;28;20107;-66
2022/04/24 08:16:59;;;;;;;4.53;2.60;;;;;;;16.70;100.00;96939.53;5041487;28;20130;-65
2022/04/24 08:19:24;;;;;;;3.45;2.40;;;;;;;16.98;97.60;96940.16;5044578;28;20037;-66
2022/04/24 08:21:50;;;;;;;3.53;2.40;;;;;;;17.05;97.99;96929.25;5045030;28;20132;-66
2022/04/24 08:24:15;;;;;;;6.50;2.83;;;;;;;17.12;98.61;96934.81;5041338;28;20071;-66
2022/04/24 08:26:40;;;;;;;7.35;2.70;;;;;;;17.21;96.46;96932.41;5042681;28;20031;-66
2022/04/24 08:29:06;;;;;;;5.00;2.70;;;;;;;17.25;95.65;96938.16;5043063;28;20455;-66
2022/04/24 08:31:31;;;;;;;6.72;2.70;;;;;;;17.44;95.89;96935.88;5038496;28;20029;-65
2022/04/24 08:33:57;;;;;;;7.75;2.80;;;;;;;17.33;94.50;96923.72;5042036;28;20037;-66
2022/04/24 08:36:26;;;;;;;9.25;2.40;;;;;;;17.19;95.03;96934.25;5042829;28;20044;-66
2022/04/24 08:38:51;;;;;;;6.80;2.72;;;;;;;17.24;94.13;96926.97;5044126;28;20052;-65
2022/04/24 08:41:21;;;;;;;7.35;3.40;;;;;;;17.14;93.04;96930.38;5043993;28;20040;-66
2022/04/24 08:43:47;;;;;;;8.18;2.38;;;;;;;17.15;94.59;96919.03;5040909;28;20036;-68
2022/04/24 08:46:13;;;;;;;7.07;2.60;;;;;;;17.04;94.87;96930.19;5043741;28;20067;-66
2022/04/24 08:48:40;;;;;;;7.10;2.97;;;;;;;17.01;97.35;96930.44;5044831;28;20123;-65
2022/04/24 08:51:08;;;;;;;7.97;2.38;;;;;;;16.87;98.87;96931.41;5042747;28;20491;-66
2022/04/24 08:53:35;;;;;;;5.00;2.03;;;;;;;17.11;97.24;96944.34;5040573;28;20048;-66
2022/04/24 08:56:02;;;;;;;3.63;2.30;;;;;;;17.06;93.55;96943.84;5043772;28;20230;-66
2022/04/24 08:58:27;;;;;;;6.80;3.70;;;;;;;17.08;92.22;96931.63;5043138;28;20383;-68
2022/04/24 09:00:53;;;;;;;6.93;2.92;;;;;;;17.41;92.05;96943.88;5041963;28;20028;-66
2022/04/24 09:03:18;;;;;;;5.53;2.67;;;;;;;17.20;93.32;96935.91;5040268;28;20814;-67
2022/04/24 09:05:44;;;;;;;5.03;3.08;;;;;;;17.38;90.73;96928.56;5044414;28;20395;-65
2022/04/24 09:08:11;;;;;;;7.15;2.63;;;;;;;17.45;89.62;96918.56;5044221;28;20033;-65
2022/04/24 09:10:49;;;;;;;7.18;2.58;;;;;;;17.68;86.60;96917.72;5040771;28;20317;-65
2022/04/24 09:13:28;;;;;;;7.15;2.80;;;;;;;17.70;85.44;96911.47;5041802;28;20032;-65
2022/04/24 09:15:57;;;;;;;8.20;2.60;;;;;;;17.59;90.35;96905.44;5043513;28;20037;-65
2022/04/24 09:18:35;;;;;;;8.90;2.33;;;;;;;17.72;87.32;96901.84;5043137;28;20063;-65
2022/04/24 09:21:01;;;;;;;5.80;2.28;;;;;;;17.46;92.86;96904.69;5040906;28;20044;-65
2022/04/24 09:23:37;;;;;;;3.25;2.53;;;;;;;17.86;89.76;96906.00;5042919;28;20131;-66
2022/04/24 09:26:02;;;;;;;10.45;2.65;;;;;;;17.82;87.88;96907.16;5041761;28;20032;-66
2022/04/24 09:28:39;;;;;;;6.45;2.22;;;;;;;17.57;87.06;96910.72;5041679;28;20036;-65
2022/04/24 09:31:05;;;;;;;5.97;2.25;;;;;;;17.77;83.63;96907.50;5040465;28;20029;-65
2022/04/24 09:33:42;;;;;;;4.13;2.10;;;;;;;17.74;86.13;96905.13;5043132;28;20036;-65
2022/04/24 09:36:08;;;;;;;5.43;2.47;;;;;;;18.10;84.39;96903.28;5043948;28;20499;-65
2022/04/24 09:38:45;;;;;;;9.65;2.35;;;;;;;18.02;82.51;96901.28;5040310;28;20068;-65
2022/04/24 09:41:17;;;;;;;6.75;2.38;;;;;;;18.10;81.97;96911.91;5040915;28;20025;-65
2022/04/24 09:43:44;;;;;;;5.10;2.25;;;;;;;18.07;83.65;96900.94;5043550;28;20029;-66
2022/04/24 09:46:09;;;;;;;6.53;2.47;;;;;;;18.06;80.68;96900.09;5057870;28;20035;-65
2022/04/24 09:48:35;;;;;;;5.85;2.30;;;;;;;18.04;80.67;96886.41;5040405;28;20041;-66
2022/04/24 09:51:01;;;;;;;6.40;2.58;;;;;;;18.20;78.93;96914.63;5041324;28;20032;-66
2022/04/24 09:53:28;;;;;;;4.22;2.58;;;;;;;18.48;77.69;96918.47;5043418;28;20025;-66
2022/04/24 09:55:55;;;;;;;8.50;2.55;;;;;;;18.71;79.47;96936.50;5040747;28;20111;-65
2022/04/24 09:58:21;;;;;;;7.00;2.47;;;;;;;18.61;80.47;96934.78;5040042;28;20033;-66
2022/04/24 10:00:47;;;;;;;6.75;2.50;;;;;;;18.89;80.94;96946.41;5040798;28;20518;-66
2022/04/24 10:03:17;;;;;;;7.28;2.22;;;;;;;18.74;74.66;96948.44;5043145;28;20036;-65
2022/04/24 10:05:45;;;;;;;7.25;2.13;;;;;;;18.71;75.71;96946.91;5040863;28;20390;-65
2022/04/24 10:08:11;;;;;;;6.88;2.15;;;;;;;18.80;76.02;96929.78;5039914;28;20037;-66
2022/04/24 10:10:37;;;;;;;4.88;1.95;;;;;;;18.93;76.18;96934.81;5042016;28;20475;-66
2022/04/24 10:13:07;;;;;;;5.65;2.08;;;;;;;19.17;71.50;96945.88;5042858;28;20122;-65
2022/04/24 10:15:36;;;;;;;4.97;2.10;;;;;;;19.49;67.39;96931.09;5039650;28;20057;-66
2022/04/24 10:18:14;;;;;;;4.63;1.80;;;;;;;19.86;65.54;96909.88;5039841;28;20963;-66
2022/04/24 10:21:10;;;;;;;4.75;2.47;;;;;;;19.88;58.79;96911.38;5040934;28;20064;-66
2022/04/24 10:23:37;;;;;;;4.32;1.95;;;;;;;20.08;60.36;96896.69;5042408;28;20033;-66
2022/04/24 10:26:15;;;;;;;1.83;1.73;;;;;;;20.28;55.71;96910.63;5039216;28;20044;-66
2022/04/24 10:28:40;;;;;;;4.20;1.98;;;;;;;20.35;58.41;96910.00;5041309;28;20039;-65
2022/04/24 10:31:07;;;;;;;4.68;2.30;;;;;;;20.79;55.75;96905.31;5041617;28;20456;-66
2022/04/24 10:33:35;;;;;;;2.80;2.28;;;;;;;21.28;56.20;96900.03;5041415;28;20033;-65
2022/04/24 10:36:14;;;;;;;2.95;2.03;;;;;;;21.42;56.92;96906.63;5039588;28;20424;-67
2022/04/24 10:38:53;;;;;;;5.57;2.40;;;;;;;21.26;54.34;96901.94;5041713;28;20043;-66
2022/04/24 10:41:22;;;;;;;3.13;2.78;;;;;;;21.46;55.04;96905.38;5042990;28;20079;-66
2022/04/24 10:43:49;;;;;;;6.00;2.13;;;;;;;21.27;52.87;96898.38;5038512;28;20383;-66
2022/04/24 10:46:15;;;;;;;5.25;3.33;;;;;;;21.16;51.66;96892.50;5039377;28;20040;-66
2022/04/24 10:48:41;;;;;;;4.53;2.38;;;;;;;21.50;50.50;96878.06;5042869;28;20125;-66
2022/04/24 10:51:06;;;;;;;3.95;1.92;;;;;;;21.67;45.60;96866.91;5042833;28;20033;-66
2022/04/24 10:53:52;;;;;;;2.60;1.50;;;;;;;21.26;40.27;96856.84;5038462;28;20024;-66
2022/04/24 10:56:18;;;;;;;1.67;1.58;;;;;;;20.73;41.50;96878.03;5039612;28;20037;-65
2022/04/24 10:58:44;;;;;;;2.22;1.50;;;;;;;20.44;41.51;96874.53;5042955;28;20037;-65
2022/04/24 11:01:13;;;;;;;1.73;1.10;;;;;;;19.99;41.70;96867.06;5042550;28;20620;-66
2022/04/24 11:03:44;;;;;;;4.00;1.60;;;;;;;19.91;42.33;96879.91;5038628;28;20055;-66
2022/04/24 11:06:20;;;;;;;2.78;1.00;;;;;;;20.16;42.94;96880.41;5040492;28;20560;-65
2022/04/24 11:08:45;;;;;;;1.77;1.33;;;;;;;20.36;42.25;96866.56;5043330;28;20550;-67
2022/04/24 11:11:14;;;;;;;1.73;0.82;;;;;;;20.41;43.17;96872.22;5042538;28;20044;-66
2022/04/24 11:13:41;;;;;;;1.17;1.00;;;;;;;20.57;41.75;96869.91;5039248;28;20063;-66
2022/04/24 11:16:06;;;;;;;1.10;1.10;;;;;;;20.65;43.16;96879.66;5037678;28;20115;-67
2022/04/24 11:18:32;;;;;;;2.90;1.25;;;;;;;20.64;42.14;96878.00;5043017;28;20143;-67
2022/04/24 11:20:58;;;;;;;1.92;1.60;;;;;;;20.70;40.80;96862.69;5040432;28;20037;-66
2022/04/24 11:23:36;;;;;;;2.50;1.50;;;;;;;20.62;39.76;96874.72;5039036;28;20095;-66